Time;durP1;ratioP1;P1;durP2;ratioP2;P2;SDS_P1;SDS_P2;PMS_P1;PMS_P2;Temp;Humidity;BMP_temperature;BMP_pressure;BME280_temperature;BME280_humidity;BME280_pressure;Samples;Min_cycle;Max_cycle;Signal;HPM_P1;HPM_P2
2023/08/22 00:02:00;;;;;;;;;;;18.90;99.90;;;;;;5015264;28;20011;-44
2023/08/22 00:04:27;;;;;;;;;;;18.80;99.90;;;;;;5016013;28;20381;-44
2023/08/22 00:06:53;;;;;;;;;;;18.80;99.90;;;;;;5016053;28;19949;-44
2023/08/22 00:09:20;;;;;;;;;;;18.80;99.90;;;;;;4998760;28;19984;-44
2023/08/22 00:11:47;;;;;;;;;;;18.80;99.90;;;;;;5014764;28;19937;-44
2023/08/22 00:14:13;;;;;;;;;;;18.80;99.90;;;;;;5030650;28;20301;-44
2023/08/22 00:16:41;;;;;;;;;;;18.80;99.90;;;;;;5012179;28;19956;-43
2023/08/22 00:19:08;;;;;;;;;;;18.80;99.90;;;;;;5008201;28;19932;-43
2023/08/22 00:21:35;;;;;;;;;;;18.80;99.90;;;;;;5014652;28;19945;-44
2023/08/22 00:24:03;;;;;;;;;;;18.80;99.90;;;;;;5000457;28;20006;-42
2023/08/22 00:26:29;;;;;;;;;;;18.80;99.90;;;;;;4997571;28;20041;-44
2023/08/22 00:28:56;;;;;;;;;;;18.80;99.90;;;;;;5006047;28;19942;-44
2023/08/22 00:31:23;;;;;;;;;;;18.80;99.90;;;;;;4996228;28;19925;-44
2023/08/22 00:33:51;;;;;;;;;;;18.70;99.90;;;;;;4997563;28;20007;-43
2023/08/22 00:36:17;;;;;;;;;;;18.70;99.90;;;;;;5014573;28;19959;-44
2023/08/22 00:38:44;;;;;;;;;;;18.70;99.90;;;;;;5000678;28;19994;-44
2023/08/22 00:41:11;;;;;;;;;;;18.70;99.90;;;;;;5013537;28;19939;-43
2023/08/22 00:43:37;;;;;;;;;;;18.60;99.90;;;;;;5023756;28;20426;-43
2023/08/22 00:46:04;;;;;;;;;;;18.60;99.90;;;;;;5013046;28;19967;-43
2023/08/22 00:48:31;;;;;;;;;;;18.60;99.90;;;;;;5015243;28;19939;-44
2023/08/22 00:50:59;;;;;;;;;;;18.50;99.90;;;;;;5030840;28;19939;-43
2023/08/22 00:53:26;;;;;;;;;;;18.50;99.90;;;;;;5031054;28;19936;-44
2023/08/22 00:55:53;;;;;;;;;;;18.50;99.90;;;;;;5004246;28;19925;-43
2023/08/22 00:58:19;;;;;;;;;;;18.50;99.90;;;;;;5013719;28;19925;-44
2023/08/22 01:00:46;;;;;;;;;;;18.40;99.90;;;;;;5014572;28;19936;-44
2023/08/22 01:03:13;;;;;;;;;;;18.40;99.90;;;;;;5009613;28;19939;-44
2023/08/22 01:05:42;;;;;;;;;;;18.40;99.90;;;;;;5030048;28;19925;-43
2023/08/22 01:08:11;;;;;;;;;;;18.30;99.90;;;;;;5024582;28;20433;-44
2023/08/22 01:10:38;;;;;;;;;;;18.30;99.90;;;;;;5005335;28;19944;-43
2023/08/22 01:13:05;;;;;;;;;;;18.30;99.90;;;;;;5037887;28;20016;-42
2023/08/22 01:15:33;;;;;;;;;;;18.30;99.90;;;;;;5009395;28;19929;-42
2023/08/22 01:18:01;;;;;;;;;;;18.20;99.90;;;;;;5006023;28;20373;-43
2023/08/22 01:20:27;;;;;;;;;;;18.20;99.90;;;;;;5027182;28;19932;-42
2023/08/22 01:22:55;;;;;;;;;;;18.20;99.90;;;;;;5034123;28;19925;-43
2023/08/22 01:25:22;;;;;;;;;;;18.10;99.90;;;;;;5037891;28;19946;-42
2023/08/22 01:27:52;;;;;;;;;;;18.10;99.90;;;;;;5019056;28;19932;-43
2023/08/22 01:30:19;;;;;;;;;;;18.10;99.90;;;;;;5019280;28;19925;-42
2023/08/22 01:32:48;;;;;;;;;;;18.10;99.90;;;;;;5033139;28;19951;-43
2023/08/22 01:35:15;;;;;;;;;;;18.10;99.90;;;;;;5010377;28;19933;-42
2023/08/22 01:37:42;;;;;;;;;;;18.10;99.90;;;;;;5020107;28;19933;-42
2023/08/22 01:40:10;;;;;;;;;;;18.10;99.90;;;;;;5019279;28;19943;-42
2023/08/22 01:42:37;;;;;;;;;;;18.10;99.90;;;;;;5026694;28;19936;-42
2023/08/22 01:45:04;;;;;;;;;;;18.10;99.90;;;;;;5019668;28;19959;-42
2023/08/22 01:47:31;;;;;;;;;;;18.10;99.90;;;;;;5012214;28;19936;-42
2023/08/22 01:49:57;;;;;;;;;;;18.10;99.90;;;;;;5019881;28;20013;-43
2023/08/22 01:52:24;;;;;;;;;;;18.10;99.90;;;;;;5019025;28;19963;-43
2023/08/22 01:54:51;;;;;;;;;;;18.10;99.90;;;;;;5009684;28;20390;-42
2023/08/22 01:57:19;;;;;;;;;;;18.10;99.90;;;;;;5005417;28;19941;-42
2023/08/22 01:59:45;;;;;;;;;;;18.10;99.90;;;;;;5029283;28;19967;-43
2023/08/22 02:02:12;;;;;;;;;;;18.10;99.90;;;;;;5036255;28;20437;-43
2023/08/22 02:04:39;;;;;;;;;;;18.10;99.90;;;;;;5037713;28;19995;-42
2023/08/22 02:07:05;;;;;;;;;;;18.10;99.90;;;;;;5020724;28;19966;-42
2023/08/22 02:09:32;;;;;;;;;;;18.00;99.90;;;;;;5021825;28;20374;-43
2023/08/22 02:11:59;;;;;;;;;;;18.10;99.90;;;;;;5007064;28;19939;-43
2023/08/22 02:14:27;;;;;;;;;;;18.00;99.90;;;;;;5007426;28;19925;-42
2023/08/22 02:16:55;;;;;;;;;;;18.00;99.90;;;;;;5032030;28;19999;-42
2023/08/22 02:19:22;;;;;;;;;;;18.00;99.90;;;;;;4998365;28;20014;-43
2023/08/22 02:21:49;;;;;;;;;;;18.00;99.90;;;;;;5022380;28;20018;-42
2023/08/22 02:24:15;;;;;;;;;;;18.00;99.90;;;;;;5003717;28;19953;-42
2023/08/22 02:26:42;;;;;;;;;;;18.00;99.90;;;;;;5016228;28;19944;-42
2023/08/22 02:29:09;;;;;;;;;;;18.00;99.90;;;;;;5027521;28;20144;-43
2023/08/22 02:31:38;;;;;;;;;;;18.00;99.90;;;;;;4999632;28;20386;-42
2023/08/22 02:34:04;;;;;;;;;;;18.00;99.90;;;;;;5031266;28;19958;-42
2023/08/22 02:36:31;;;;;;;;;;;17.90;99.90;;;;;;5017515;28;19943;-43
2023/08/22 02:38:58;;;;;;;;;;;17.90;99.90;;;;;;5016332;28;19930;-43
2023/08/22 02:41:25;;;;;;;;;;;17.90;99.90;;;;;;5020221;28;19925;-43
2023/08/22 02:43:51;;;;;;;;;;;17.90;99.90;;;;;;5033119;28;19962;-42
2023/08/22 02:46:18;;;;;;;;;;;17.90;99.90;;;;;;5015170;28;19940;-43
2023/08/22 02:48:46;;;;;;;;;;;17.90;99.90;;;;;;5024271;28;19942;-42
2023/08/22 02:51:13;;;;;;;;;;;17.90;99.90;;;;;;5005409;28;19964;-43
2023/08/22 02:53:39;;;;;;;;;;;17.90;99.90;;;;;;5006602;28;20407;-42
2023/08/22 02:56:06;;;;;;;;;;;17.90;99.90;;;;;;5004331;28;19947;-42
2023/08/22 02:58:33;;;;;;;;;;;17.80;99.90;;;;;;5017755;28;19925;-43
2023/08/22 03:00:59;;;;;;;;;;;17.80;99.90;;;;;;5000678;28;19929;-42
2023/08/22 03:03:26;;;;;;;;;;;17.80;99.90;;;;;;5028288;28;20372;-43
2023/08/22 03:05:54;;;;;;;;;;;17.80;99.90;;;;;;5028358;28;20002;-42
2023/08/22 03:08:21;;;;;;;;;;;17.80;99.90;;;;;;5016805;28;19939;-42
2023/08/22 03:10:48;;;;;;;;;;;17.70;99.90;;;;;;5016949;28;20004;-43
2023/08/22 03:13:15;;;;;;;;;;;17.70;99.90;;;;;;5020870;28;19939;-42
2023/08/22 03:15:41;;;;;;;;;;;17.70;99.90;;;;;;5014605;28;19988;-42
2023/08/22 03:18:08;;;;;;;;;;;17.70;99.90;;;;;;4996914;28;19963;-42
2023/08/22 03:20:35;;;;;;;;;;;17.70;99.90;;;;;;5014649;28;19967;-43
2023/08/22 03:23:04;;;;;;;;;;;17.70;99.90;;;;;;5009272;28;19972;-43
2023/08/22 03:25:31;;;;;;;;;;;17.70;99.90;;;;;;4997963;28;20035;-42
2023/08/22 03:27:58;;;;;;;;;;;17.70;99.90;;;;;;5027223;28;19925;-43
2023/08/22 03:30:24;;;;;;;;;;;17.60;99.90;;;;;;5004384;28;19984;-43
2023/08/22 03:32:51;;;;;;;;;;;17.60;99.90;;;;;;5020102;28;20399;-42
2023/08/22 03:35:18;;;;;;;;;;;17.60;99.90;;;;;;5011740;28;19961;-42
2023/08/22 03:37:44;;;;;;;;;;;17.60;99.90;;;;;;5031516;28;19942;-43
2023/08/22 03:40:13;;;;;;;;;;;17.60;99.90;;;;;;5006145;28;19979;-42
2023/08/22 03:42:39;;;;;;;;;;;17.50;99.90;;;;;;4999303;28;19968;-43
2023/08/22 03:45:06;;;;;;;;;;;17.50;99.90;;;;;;5013419;28;19998;-43
2023/08/22 03:47:33;;;;;;;;;;;17.50;99.90;;;;;;5028358;28;19945;-42
2023/08/22 03:50:00;;;;;;;;;;;17.40;99.90;;;;;;5015803;28;19961;-43
2023/08/22 03:52:26;;;;;;;;;;;17.40;99.90;;;;;;5014446;28;19986;-42
2023/08/22 03:54:53;;;;;;;;;;;17.30;99.90;;;;;;5012763;28;19933;-42
2023/08/22 03:57:24;;;;;;;;;;;17.30;99.90;;;;;;5020305;28;19995;-43
2023/08/22 03:59:51;;;;;;;;;;;17.20;99.90;;;;;;5031910;28;19949;-43
2023/08/22 04:02:18;;;;;;;;;;;17.30;99.90;;;;;;5006158;28;20410;-42
2023/08/22 04:04:44;;;;;;;;;;;17.20;99.90;;;;;;4997082;28;19941;-43
2023/08/22 04:07:11;;;;;;;;;;;17.10;99.90;;;;;;4995850;28;19987;-42
2023/08/22 04:09:37;;;;;;;;;;;17.10;99.90;;;;;;5015356;28;20001;-42
2023/08/22 04:12:04;;;;;;;;;;;17.10;99.90;;;;;;5001687;28;20392;-43
2023/08/22 04:14:32;;;;;;;;;;;17.10;99.90;;;;;;5014184;28;19955;-43
2023/08/22 04:16:59;;;;;;;;;;;17.00;99.90;;;;;;5000329;28;19940;-42
2023/08/22 04:19:26;;;;;;;;;;;17.00;99.90;;;;;;5013364;28;20031;-43
2023/08/22 04:21:52;;;;;;;;;;;16.90;99.90;;;;;;5013928;28;19999;-43
2023/08/22 04:24:19;;;;;;;;;;;16.90;99.90;;;;;;5021216;28;19939;-43
2023/08/22 04:26:46;;;;;;;;;;;16.90;99.90;;;;;;5002239;28;19975;-43
2023/08/22 04:29:12;;;;;;;;;;;16.80;99.90;;;;;;5003728;28;20379;-43
2023/08/22 04:31:40;;;;;;;;;;;16.80;99.90;;;;;;5031885;28;19925;-42
2023/08/22 04:34:07;;;;;;;;;;;16.80;99.90;;;;;;4995530;28;19947;-43
2023/08/22 04:36:34;;;;;;;;;;;16.80;99.90;;;;;;5014041;28;19954;-43
2023/08/22 04:39:01;;;;;;;;;;;16.70;99.90;;;;;;5016619;28;19944;-43
2023/08/22 04:41:27;;;;;;;;;;;16.70;99.90;;;;;;5018341;28;19986;-42
2023/08/22 04:43:54;;;;;;;;;;;16.70;99.90;;;;;;5031194;28;20373;-42
2023/08/22 04:46:21;;;;;;;;;;;16.60;99.90;;;;;;4995710;28;19943;-43
2023/08/22 04:48:49;;;;;;;;;;;16.60;99.90;;;;;;4996586;28;19929;-43
2023/08/22 04:51:15;;;;;;;;;;;16.60;99.90;;;;;;5024761;28;20357;-42
2023/08/22 04:53:42;;;;;;;;;;;16.60;99.90;;;;;;5012959;28;20010;-43
2023/08/22 04:56:08;;;;;;;;;;;16.50;99.90;;;;;;5032482;28;19925;-44
2023/08/22 04:58:35;;;;;;;;;;;16.50;99.90;;;;;;5005126;28;20392;-43
2023/08/22 05:01:02;;;;;;;;;;;16.50;99.90;;;;;;5012765;28;19959;-43
2023/08/22 05:03:29;;;;;;;;;;;16.50;99.90;;;;;;5012679;28;19945;-43
2023/08/22 05:05:57;;;;;;;;;;;16.50;99.90;;;;;;4995282;28;19926;-43
2023/08/22 05:08:23;;;;;;;;;;;16.50;99.90;;;;;;5009633;28;20377;-43
2023/08/22 05:10:50;;;;;;;;;;;16.50;99.90;;;;;;5019184;28;19996;-43
2023/08/22 05:13:17;;;;;;;;;;;16.50;99.90;;;;;;5012381;28;19966;-43
2023/08/22 05:15:43;;;;;;;;;;;16.40;99.90;;;;;;5014212;28;20733;-43
2023/08/22 05:18:10;;;;;;;;;;;16.40;99.90;;;;;;5008563;28;20064;-43
2023/08/22 05:20:37;;;;;;;;;;;16.40;99.90;;;;;;5013583;28;20365;-42
2023/08/22 05:23:05;;;;;;;;;;;16.40;99.90;;;;;;5029363;28;19935;-43
2023/08/22 05:25:32;;;;;;;;;;;16.40;99.90;;;;;;5012847;28;20481;-43
2023/08/22 05:27:58;;;;;;;;;;;16.50;99.90;;;;;;5013509;28;19961;-43
2023/08/22 05:30:26;;;;;;;;;;;16.50;99.90;;;;;;5002145;28;19943;-43
2023/08/22 05:32:52;;;;;;;;;;;16.50;99.90;;;;;;5027135;28;19938;-43
2023/08/22 05:35:19;;;;;;;;;;;16.60;99.90;;;;;;5011770;28;19963;-43
2023/08/22 05:37:46;;;;;;;;;;;16.60;99.90;;;;;;5017893;28;19939;-43
2023/08/22 05:40:14;;;;;;;;;;;16.60;99.90;;;;;;5016714;28;19963;-43
2023/08/22 05:42:40;;;;;;;;;;;16.60;99.90;;;;;;5004780;28;19975;-43
2023/08/22 05:45:08;;;;;;;;;;;16.70;99.90;;;;;;4995628;28;19991;-43
2023/08/22 05:47:35;;;;;;;;;;;16.70;99.90;;;;;;5003503;28;20382;-43
2023/08/22 05:50:03;;;;;;;;;;;16.80;99.90;;;;;;4995887;28;19925;-43
2023/08/22 05:52:30;;;;;;;;;;;16.90;99.90;;;;;;5012138;28;19961;-42
2023/08/22 05:54:56;;;;;;;;;;;16.90;99.90;;;;;;5014094;28;19940;-42
2023/08/22 05:57:24;;;;;;;;;;;17.10;99.90;;;;;;5016876;28;20000;-43
2023/08/22 05:59:51;;;;;;;;;;;17.20;99.90;;;;;;5023250;28;19938;-43
2023/08/22 06:02:18;;;;;;;;;;;17.30;99.90;;;;;;5010165;28;20006;-43
2023/08/22 06:04:45;;;;;;;;;;;17.40;99.90;;;;;;5015604;28;20366;-43
2023/08/22 06:07:11;;;;;;;;;;;17.60;99.90;;;;;;5006970;28;19975;-43
2023/08/22 06:09:38;;;;;;;;;;;17.70;99.90;;;;;;5032437;28;19983;-42
2023/08/22 06:12:05;;;;;;;;;;;17.90;99.90;;;;;;5030861;28;20406;-43
2023/08/22 06:14:33;;;;;;;;;;;18.00;99.90;;;;;;5026762;28;20026;-43
2023/08/22 06:17:00;;;;;;;;;;;18.10;99.90;;;;;;5025242;28;19970;-44
2023/08/22 06:19:26;;;;;;;;;;;18.20;99.90;;;;;;5030353;28;19967;-43
2023/08/22 06:21:53;;;;;;;;;;;18.40;99.90;;;;;;5029960;28;20320;-42
2023/08/22 06:24:20;;;;;;;;;;;18.50;99.90;;;;;;5020897;28;19925;-43
2023/08/22 06:26:48;;;;;;;;;;;18.60;99.90;;;;;;5015137;28;19975;-43
2023/08/22 06:29:15;;;;;;;;;;;18.60;99.90;;;;;;5033423;28;19970;-43
2023/08/22 06:31:43;;;;;;;;;;;18.70;99.90;;;;;;4999469;28;19962;-43
2023/08/22 06:34:10;;;;;;;;;;;18.70;99.90;;;;;;5023148;28;20013;-43
2023/08/22 06:36:36;;;;;;;;;;;18.70;99.90;;;;;;5008706;28;19936;-43
2023/08/22 06:39:05;;;;;;;;;;;18.80;99.90;;;;;;5014606;28;19997;-43
2023/08/22 06:41:31;;;;;;;;;;;18.80;99.90;;;;;;4996144;28;20060;-43
2023/08/22 06:44:00;;;;;;;;;;;18.80;99.90;;;;;;5021563;28;20364;-43
2023/08/22 06:46:27;;;;;;;;;;;18.80;99.90;;;;;;5012596;28;20375;-43
2023/08/22 06:48:55;;;;;;;;;;;18.80;99.90;;;;;;5032553;28;19964;-43
2023/08/22 06:51:22;;;;;;;;;;;18.90;99.90;;;;;;5011938;28;20349;-43
2023/08/22 06:53:48;;;;;;;;;;;18.90;99.90;;;;;;5012648;28;20249;-44
2023/08/22 06:56:15;;;;;;;;;;;19.00;99.90;;;;;;5025263;28;20538;-44
2023/08/22 06:58:42;;;;;;;;;;;19.10;99.90;;;;;;5007973;28;19925;-43
2023/08/22 07:01:09;;;;;;;;;;;19.30;99.90;;;;;;5027950;28;20023;-44
2023/08/22 07:03:35;;;;;;;;;;;19.40;99.90;;;;;;4999284;28;20358;-44
2023/08/22 07:06:03;;;;;;;;;;;19.50;99.90;;;;;;5035191;28;19939;-43
2023/08/22 07:08:30;;;;;;;;;;;19.80;99.90;;;;;;5018165;28;19940;-43
2023/08/22 07:10:59;;;;;;;;;;;20.00;99.90;;;;;;5017944;28;20431;-45
2023/08/22 07:13:26;;;;;;;;;;;20.20;99.90;;;;;;5005523;28;19963;-43
2023/08/22 07:15:53;;;;;;;;;;;20.40;99.90;;;;;;5014227;28;19932;-43
2023/08/22 07:18:20;;;;;;;;;;;20.60;99.90;;;;;;5028186;28;20024;-43
2023/08/22 07:20:51;;;;;;;;;;;20.70;99.90;;;;;;4988848;28;19965;-44
2023/08/22 07:23:19;;;;;;;;;;;20.70;99.90;;;;;;4996736;28;20373;-44
2023/08/22 07:25:47;;;;;;;;;;;20.80;99.90;;;;;;5017491;28;19929;-44
2023/08/22 07:28:14;;;;;;;;;;;20.90;99.90;;;;;;5012798;28;19964;-43
2023/08/22 07:30:41;;;;;;;;;;;21.10;99.90;;;;;;4996560;28;19937;-43
2023/08/22 07:33:08;;;;;;;;;;;21.20;99.90;;;;;;5011481;28;19969;-43
2023/08/22 07:35:35;;;;;;;;;;;21.40;99.90;;;;;;5014619;28;19965;-43
2023/08/22 07:38:02;;;;;;;;;;;21.50;99.90;;;;;;5012698;28;20014;-42
2023/08/22 07:40:30;;;;;;;;;;;21.60;99.90;;;;;;5011907;28;19942;-43
2023/08/22 07:42:58;;;;;;;;;;;21.70;99.90;;;;;;5029064;28;19998;-44
2023/08/22 07:45:25;;;;;;;;;;;21.80;99.90;;;;;;5031202;28;19942;-44
2023/08/22 07:47:52;;;;;;;;;;;21.90;99.90;;;;;;5014865;28;19985;-42
2023/08/22 07:50:18;;;;;;;;;;;22.00;99.90;;;;;;4995844;28;19946;-43
2023/08/22 07:52:46;;;;;;;;;;;22.00;99.90;;;;;;4997448;28;19936;-44
2023/08/22 07:55:12;;;;;;;;;;;22.00;99.90;;;;;;5010196;28;19959;-43
2023/08/22 07:57:41;;;;;;;;;;;22.20;99.90;;;;;;5031756;28;19953;-43
2023/08/22 08:00:11;;;;;;;;;;;22.30;99.90;;;;;;5013467;28;19951;-44
2023/08/22 08:02:37;;;;;;;;;;;22.40;99.90;;;;;;4996046;28;20008;-43
2023/08/22 08:05:04;;;;;;;;;;;22.40;99.90;;;;;;5018240;28;20031;-42
2023/08/22 08:07:31;;;;;;;;;;;22.50;99.90;;;;;;5003994;28;20380;-43
2023/08/22 08:09:58;;;;;;;;;;;22.50;99.90;;;;;;5005400;28;19934;-43
2023/08/22 08:12:24;;;;;;;;;;;22.50;99.90;;;;;;5015977;28;19933;-43
2023/08/22 08:14:52;;;;;;;;;;;22.60;99.90;;;;;;5015296;28;20445;-42
2023/08/22 08:17:19;;;;;;;;;;;22.60;99.90;;;;;;5031053;28;19936;-44
2023/08/22 08:19:46;;;;;;;;;;;22.70;99.90;;;;;;5031571;28;19925;-44
2023/08/22 08:22:12;;;;;;;;;;;22.70;99.90;;;;;;5012667;28;19959;-43
2023/08/22 08:24:39;;;;;;;;;;;22.80;99.90;;;;;;5019536;28;19966;-43
2023/08/22 08:27:06;;;;;;;;;;;22.80;99.90;;;;;;5010263;28;20005;-43
2023/08/22 08:29:32;;;;;;;;;;;22.80;99.90;;;;;;5031558;28;19967;-44
2023/08/22 08:32:01;;;;;;;;;;;22.80;99.90;;;;;;5031008;28;20393;-43
2023/08/22 08:34:27;;;;;;;;;;;22.80;99.90;;;;;;5012742;28;19925;-43
2023/08/22 08:36:54;;;;;;;;;;;22.90;99.90;;;;;;5031251;28;19963;-43
2023/08/22 08:39:21;;;;;;;;;;;23.00;99.90;;;;;;5030111;28;19947;-43
2023/08/22 08:41:49;;;;;;;;;;;23.00;99.90;;;;;;5013943;28;19941;-43
2023/08/22 08:44:16;;;;;;;;;;;23.10;99.90;;;;;;5030768;28;19939;-44
2023/08/22 08:46:42;;;;;;;;;;;23.10;99.90;;;;;;5026899;28;20044;-43
2023/08/22 08:49:11;;;;;;;;;;;23.20;99.90;;;;;;5030467;28;20304;-44
2023/08/22 08:51:37;;;;;;;;;;;23.30;99.90;;;;;;5031529;28;19963;-44
2023/08/22 08:54:04;;;;;;;;;;;23.40;99.90;;;;;;5024037;28;19944;-43
2023/08/22 08:56:31;;;;;;;;;;;23.40;99.90;;;;;;5028545;28;20391;-44
2023/08/22 08:58:58;;;;;;;;;;;23.40;99.90;;;;;;5030345;28;19987;-43
2023/08/22 09:01:24;;;;;;;;;;;23.30;99.90;;;;;;5011251;28;20264;-43
2023/08/22 09:03:51;;;;;;;;;;;23.30;99.90;;;;;;5028970;28;19959;-44
2023/08/22 09:06:20;;;;;;;;;;;23.40;99.90;;;;;;5019451;28;20442;-43
2023/08/22 09:09:01;;;;;;;;;;;23.50;99.90;;;;;;5001945;28;19949;-42
2023/08/22 09:11:28;;;;;;;;;;;23.50;99.90;;;;;;5026896;28;19925;-43
2023/08/22 09:13:55;;;;;;;;;;;23.60;99.90;;;;;;5025470;28;19925;-43
2023/08/22 09:16:23;;;;;;;;;;;23.50;99.90;;;;;;4998522;28;20042;-43
2023/08/22 09:18:50;;;;;;;;;;;23.50;99.90;;;;;;5019098;28;19969;-42
2023/08/22 09:21:16;;;;;;;;;;;23.60;99.90;;;;;;4994043;28;19947;-44
2023/08/22 09:23:49;;;;;;;;;;;23.70;99.90;;;;;;5013919;28;20367;-44
2023/08/22 09:26:16;;;;;;;;;;;23.70;99.90;;;;;;5017726;28;19984;-43
2023/08/22 09:28:43;;;;;;;;;;;23.80;99.90;;;;;;5014798;28;20418;-44
2023/08/22 09:31:10;;;;;;;;;;;23.90;99.90;;;;;;5003487;28;19946;-44
2023/08/22 09:33:44;;;;;;;;;;;24.10;99.90;;;;;;5045569;28;19959;-43
2023/08/22 09:36:19;;;;;;;;;;;24.30;99.90;;;;;;5025078;28;20013;-44
2023/08/22 09:38:53;;;;;;;;;;;24.50;99.90;;;;;;5019004;28;20008;-43
2023/08/22 09:41:21;;;;;;;;;;;24.70;99.90;;;;;;5016231;28;20027;-44
2023/08/22 09:43:48;;;;;;;;;;;24.90;99.90;;;;;;5015289;28;19943;-44
2023/08/22 09:46:14;;;;;;;;;;;25.00;99.90;;;;;;5031792;28;19958;-44
2023/08/22 09:48:41;;;;;;;;;;;25.20;99.90;;;;;;5015217;28;19997;-43
2023/08/22 09:51:09;;;;;;;;;;;25.40;99.90;;;;;;5034785;28;19940;-43
2023/08/22 09:53:35;;;;;;;;;;;25.60;99.90;;;;;;4998747;28;19948;-44
2023/08/22 09:56:03;;;;;;;;;;;25.60;99.90;;;;;;5015401;28;20475;-44
2023/08/22 09:58:31;;;;;;;;;;;25.80;99.90;;;;;;5034110;28;19977;-44
2023/08/22 10:00:57;;;;;;;;;;;26.00;99.90;;;;;;5015725;28;20481;-44
2023/08/22 10:03:24;;;;;;;;;;;26.20;99.90;;;;;;5010148;28;19943;-43
2023/08/22 10:05:51;;;;;;;;;;;26.30;99.90;;;;;;5033541;28;19935;-42
2023/08/22 10:08:17;;;;;;;;;;;26.50;99.90;;;;;;5030585;28;19925;-43
2023/08/22 10:10:47;;;;;;;;;;;26.60;99.70;;;;;;5017321;28;19932;-44
2023/08/22 10:13:16;;;;;;;;;;;26.80;99.70;;;;;;5032920;28;19972;-44
2023/08/22 10:15:42;;;;;;;;;;;26.80;99.10;;;;;;5010266;28;19961;-43
2023/08/22 10:18:09;;;;;;;;;;;26.80;99.30;;;;;;5005851;28;19966;-43
2023/08/22 10:20:36;;;;;;;;;;;26.80;99.50;;;;;;5026950;28;20293;-43
2023/08/22 10:23:03;;;;;;;;;;;26.90;99.00;;;;;;5027129;28;20249;-43
2023/08/22 10:25:50;;;;;;;;;;;27.00;98.50;;;;;;5019464;28;19965;-43
2023/08/22 10:28:18;;;;;;;;;;;27.10;98.20;;;;;;5015395;28;19942;-44
2023/08/22 10:31:01;;;;;;;;;;;27.20;97.50;;;;;;4997739;28;20073;-44
2023/08/22 10:33:28;;;;;;;;;;;27.30;96.40;;;;;;5017608;28;19941;-44
2023/08/22 10:36:02;;;;;;;;;;;27.10;96.70;;;;;;5009030;28;19925;-43
2023/08/22 10:38:28;;;;;;;;;;;27.20;97.50;;;;;;5023507;28;19947;-44
2023/08/22 10:40:55;;;;;;;;;;;27.20;95.60;;;;;;5013593;28;19994;-43
2023/08/22 10:43:23;;;;;;;;;;;27.10;96.40;;;;;;5023861;28;20364;-43
2023/08/22 10:45:50;;;;;;;;;;;27.00;96.30;;;;;;5017762;28;19929;-44
2023/08/22 10:48:18;;;;;;;;;;;27.10;97.30;;;;;;5011866;28;19925;-43
2023/08/22 10:50:45;;;;;;;;;;;27.20;96.20;;;;;;5020055;28;19983;-43
2023/08/22 10:53:11;;;;;;;;;;;27.30;97.10;;;;;;5015828;28;19964;-44
2023/08/22 10:55:38;;;;;;;;;;;27.40;96.10;;;;;;4998481;28;19933;-44
2023/08/22 10:58:05;;;;;;;;;;;27.30;96.20;;;;;;5028892;28;20011;-43
2023/08/22 11:00:33;;;;;;;;;;;27.40;97.20;;;;;;5033083;28;19943;-44
2023/08/22 11:03:00;;;;;;;;;;;27.40;94.40;;;;;;5007282;28;20134;-44
2023/08/22 11:05:27;;;;;;;;;;;27.40;94.60;;;;;;5027392;28;19944;-43
2023/08/22 11:07:53;;;;;;;;;;;27.50;93.30;;;;;;5032718;28;20014;-43
2023/08/22 11:10:21;;;;;;;;;;;27.50;95.80;;;;;;5019880;28;20404;-44
2023/08/22 11:12:49;;;;;;;;;;;27.60;94.10;;;;;;5006697;28;19967;-44
2023/08/22 11:15:15;;;;;;;;;;;27.70;94.60;;;;;;5011777;28;19984;-43
2023/08/22 11:17:44;;;;;;;;;;;27.80;94.50;;;;;;5012813;28;20023;-44
2023/08/22 11:20:11;;;;;;;;;;;27.90;95.10;;;;;;5025563;28;19984;-43
2023/08/22 11:22:38;;;;;;;;;;;28.00;95.10;;;;;;5025195;28;19929;-44
2023/08/22 11:25:05;;;;;;;;;;;28.10;94.40;;;;;;5010100;28;19929;-44
2023/08/22 11:27:32;;;;;;;;;;;28.20;94.30;;;;;;5025797;28;20399;-44
2023/08/22 11:29:58;;;;;;;;;;;28.30;93.80;;;;;;5009598;28;19986;-44
2023/08/22 11:32:25;;;;;;;;;;;28.30;93.70;;;;;;5028448;28;19937;-44
2023/08/22 11:34:54;;;;;;;;;;;28.40;93.60;;;;;;5021171;28;19948;-44
2023/08/22 11:37:21;;;;;;;;;;;28.50;93.90;;;;;;4997461;28;20325;-44
2023/08/22 11:39:48;;;;;;;;;;;28.60;92.50;;;;;;5010958;28;19925;-45
2023/08/22 11:42:15;;;;;;;;;;;28.70;92.90;;;;;;5024058;28;19929;-43
2023/08/22 11:44:56;;;;;;;;;;;28.80;92.90;;;;;;5025845;28;19932;-44
2023/08/22 11:47:23;;;;;;;;;;;28.90;91.80;;;;;;5018780;28;19943;-44
2023/08/22 11:49:50;;;;;;;;;;;28.90;90.90;;;;;;5033443;28;20118;-43
2023/08/22 11:52:18;;;;;;;;;;;29.00;91.10;;;;;;5026477;28;19945;-44
2023/08/22 11:54:45;;;;;;;;;;;29.00;91.60;;;;;;5004866;28;19972;-44
2023/08/22 11:57:12;;;;;;;;;;;29.10;91.80;;;;;;5023160;28;20019;-44
2023/08/22 11:59:41;;;;;;;;;;;29.10;91.40;;;;;;5027684;28;19925;-44
2023/08/22 12:02:10;;;;;;;;;;;29.20;91.40;;;;;;5022732;28;20005;-45
2023/08/22 12:04:42;;;;;;;;;;;29.20;92.00;;;;;;5014110;28;19948;-44
2023/08/22 12:07:09;;;;;;;;;;;29.20;92.00;;;;;;5029173;28;19971;-43
2023/08/22 12:09:37;;;;;;;;;;;29.20;90.80;;;;;;5007583;28;19945;-43
2023/08/22 12:12:11;;;;;;;;;;;29.20;92.10;;;;;;5026560;28;19929;-43
2023/08/22 12:14:38;;;;;;;;;;;29.10;91.70;;;;;;4999812;28;19975;-42
2023/08/22 12:17:04;;;;;;;;;;;29.10;91.40;;;;;;5005227;28;20351;-43
2023/08/22 12:19:31;;;;;;;;;;;29.10;90.30;;;;;;5012756;28;19943;-43
2023/08/22 12:21:59;;;;;;;;;;;29.20;91.30;;;;;;5009150;28;20073;-43
2023/08/22 12:24:26;;;;;;;;;;;29.40;91.70;;;;;;5022653;28;19994;-43
2023/08/22 12:26:54;;;;;;;;;;;29.40;90.90;;;;;;5019596;28;19964;-43
2023/08/22 12:29:21;;;;;;;;;;;29.50;90.40;;;;;;5017901;28;19929;-43
2023/08/22 12:31:47;;;;;;;;;;;29.50;88.20;;;;;;4998707;28;19948;-43
2023/08/22 12:34:14;;;;;;;;;;;29.50;89.30;;;;;;5006479;28;19929;-43
2023/08/22 12:36:40;;;;;;;;;;;29.60;89.60;;;;;;5008243;28;19963;-43
2023/08/22 12:39:10;;;;;;;;;;;29.60;89.30;;;;;;5031627;28;19965;-44
2023/08/22 12:41:37;;;;;;;;;;;29.60;84.30;;;;;;5006899;28;19975;-44
2023/08/22 12:44:05;;;;;;;;;;;29.60;89.00;;;;;;5022411;28;19993;-43
2023/08/22 12:46:32;;;;;;;;;;;29.60;87.60;;;;;;5026354;28;19937;-44
2023/08/22 12:48:58;;;;;;;;;;;29.50;88.50;;;;;;5004812;28;19983;-43
2023/08/22 12:51:25;;;;;;;;;;;29.50;88.20;;;;;;5019315;28;19933;-44
2023/08/22 12:53:52;;;;;;;;;;;29.60;89.50;;;;;;4998499;28;20363;-43
2023/08/22 12:56:19;;;;;;;;;;;29.70;90.10;;;;;;5037505;28;19965;-44
2023/08/22 12:58:45;;;;;;;;;;;29.80;89.80;;;;;;5021635;28;20369;-44
2023/08/22 13:01:14;;;;;;;;;;;29.80;90.40;;;;;;5030302;28;19963;-44
2023/08/22 13:03:41;;;;;;;;;;;29.90;89.10;;;;;;5024758;28;20427;-44
2023/08/22 13:06:07;;;;;;;;;;;30.00;88.10;;;;;;4999173;28;19943;-44
2023/08/22 13:08:34;;;;;;;;;;;30.00;86.60;;;;;;5026548;28;19966;-44
2023/08/22 13:11:01;;;;;;;;;;;30.00;86.20;;;;;;5017762;28;19967;-43
2023/08/22 13:13:27;;;;;;;;;;;30.00;87.10;;;;;;5010716;28;19962;-44
2023/08/22 13:15:54;;;;;;;;;;;30.10;86.80;;;;;;5031883;28;20373;-44
2023/08/22 13:18:22;;;;;;;;;;;30.10;84.30;;;;;;5017166;28;19967;-43
2023/08/22 13:20:49;;;;;;;;;;;30.10;85.70;;;;;;5004368;28;19932;-44
2023/08/22 13:23:16;;;;;;;;;;;30.10;85.00;;;;;;5020277;28;19956;-43
2023/08/22 13:25:42;;;;;;;;;;;30.10;85.10;;;;;;5015757;28;19926;-43
2023/08/22 13:28:09;;;;;;;;;;;30.10;85.50;;;;;;5022487;28;19984;-44
2023/08/22 13:30:36;;;;;;;;;;;30.10;85.30;;;;;;5004044;28;20469;-44
2023/08/22 13:33:02;;;;;;;;;;;30.10;83.20;;;;;;4999761;28;19963;-44
2023/08/22 13:35:30;;;;;;;;;;;30.20;84.40;;;;;;5008464;28;19939;-44
2023/08/22 13:37:57;;;;;;;;;;;30.30;84.70;;;;;;5019923;28;19932;-44
2023/08/22 13:40:24;;;;;;;;;;;30.30;85.40;;;;;;5015938;28;19947;-44
2023/08/22 13:42:51;;;;;;;;;;;30.30;84.40;;;;;;4999829;28;19925;-43
2023/08/22 13:45:17;;;;;;;;;;;30.30;84.40;;;;;;5024266;28;19932;-44
2023/08/22 13:47:44;;;;;;;;;;;30.30;84.50;;;;;;5030491;28;20377;-44
2023/08/22 13:50:11;;;;;;;;;;;30.40;83.00;;;;;;5030065;28;19930;-44
2023/08/22 13:52:39;;;;;;;;;;;30.30;83.70;;;;;;5018986;28;19999;-44
2023/08/22 13:55:06;;;;;;;;;;;30.30;82.50;;;;;;5028045;28;19965;-44
2023/08/22 13:57:33;;;;;;;;;;;30.20;83.80;;;;;;5030727;28;19967;-44
2023/08/22 13:59:59;;;;;;;;;;;30.20;84.80;;;;;;5001302;28;19968;-44
2023/08/22 14:02:26;;;;;;;;;;;30.30;85.30;;;;;;5016242;28;19932;-44
2023/08/22 14:04:53;;;;;;;;;;;30.50;85.30;;;;;;5028051;28;19925;-43
2023/08/22 14:07:19;;;;;;;;;;;30.60;83.80;;;;;;5025905;28;19972;-44
2023/08/22 14:09:47;;;;;;;;;;;30.60;83.20;;;;;;5024128;28;19932;-44
2023/08/22 14:12:14;;;;;;;;;;;30.70;84.30;;;;;;5008715;28;19925;-43
2023/08/22 14:14:41;;;;;;;;;;;30.80;83.40;;;;;;5021396;28;19944;-43
2023/08/22 14:17:08;;;;;;;;;;;30.80;84.00;;;;;;5022079;28;19962;-44